Time;durP1;ratioP1;P1;durP2;ratioP2;P2;SDS_P1;SDS_P2;PMS_P1;PMS_P2;Temp;Humidity;BMP_temperature;BMP_pressure;BME280_temperature;BME280_humidity;BME280_pressure;Samples;Min_cycle;Max_cycle;Signal;HPM_P1;HPM_P2
2024/03/22 00:01:46;;;;;;;17.20;5.57;;;;;;;;;;5063189;28;20473;-55
2024/03/22 00:04:12;;;;;;;9.10;5.00;;;;;;;;;;5050635;28;20067;-53
2024/03/22 00:06:38;;;;;;;12.18;5.32;;;;;;;;;;5046529;28;20053;-54
2024/03/22 00:09:05;;;;;;;13.43;5.40;;;;;;;;;;5047481;28;20068;-53
2024/03/22 00:11:31;;;;;;;13.73;5.55;;;;;;;;;;5045865;28;20087;-51
2024/03/22 00:13:57;;;;;;;18.15;5.70;;;;;;;;;;5045266;28;20032;-54
2024/03/22 00:16:23;;;;;;;13.48;5.45;;;;;;;;;;5045546;28;20041;-49
2024/03/22 00:18:49;;;;;;;10.63;5.03;;;;;;;;;;5046990;28;20021;-50
2024/03/22 00:21:15;;;;;;;13.25;6.05;;;;;;;;;;5046872;28;20029;-53
2024/03/22 00:23:40;;;;;;;13.05;5.43;;;;;;;;;;5062203;28;20037;-50
2024/03/22 00:26:06;;;;;;;14.57;5.18;;;;;;;;;;5046810;28;20563;-51
2024/03/22 00:28:33;;;;;;;13.68;5.70;;;;;;;;;;5062265;28;20037;-50
2024/03/22 00:30:58;;;;;;;13.88;5.63;;;;;;;;;;5047035;28;20064;-50
2024/03/22 00:33:24;;;;;;;11.05;4.72;;;;;;;;;;5045293;28;20067;-51
2024/03/22 00:35:50;;;;;;;10.63;5.28;;;;;;;;;;5046822;28;20064;-51
2024/03/22 00:38:15;;;;;;;8.75;4.55;;;;;;;;;;5045577;28;20036;-52
2024/03/22 00:40:41;;;;;;;12.40;4.93;;;;;;;;;;5053432;28;20029;-51
2024/03/22 00:43:07;;;;;;;10.77;4.78;;;;;;;;;;5065366;28;20553;-53
2024/03/22 00:45:33;;;;;;;15.60;4.95;;;;;;;;;;5049836;28;20033;-50
2024/03/22 00:47:59;;;;;;;12.82;5.07;;;;;;;;;;5062153;28;20037;-51
2024/03/22 00:50:25;;;;;;;12.73;4.95;;;;;;;;;;5046533;28;20122;-50
2024/03/22 00:52:52;;;;;;;9.13;4.28;;;;;;;;;;5045055;28;20492;-53
2024/03/22 00:55:18;;;;;;;13.75;4.68;;;;;;;;;;5046255;28;20043;-53
2024/03/22 00:57:43;;;;;;;9.85;4.10;;;;;;;;;;5046122;28;20521;-53
2024/03/22 01:00:10;;;;;;;14.05;5.32;;;;;;;;;;5050684;28;20063;-53
2024/03/22 01:02:35;;;;;;;8.43;4.20;;;;;;;;;;5047378;28;20035;-53
2024/03/22 01:05:01;;;;;;;11.80;5.68;;;;;;;;;;5060850;28;20041;-55
2024/03/22 01:07:27;;;;;;;10.90;4.68;;;;;;;;;;5046372;28;20041;-50
2024/03/22 01:09:53;;;;;;;21.13;6.07;;;;;;;;;;5046236;28;20040;-54
2024/03/22 01:12:19;;;;;;;11.52;5.70;;;;;;;;;;5045180;28;20419;-53
2024/03/22 01:14:44;;;;;;;16.00;5.00;;;;;;;;;;5061440;28;20071;-50
2024/03/22 01:17:10;;;;;;;12.70;5.20;;;;;;;;;;5046461;28;20063;-48
2024/03/22 01:19:36;;;;;;;13.00;5.28;;;;;;;;;;5044886;28;20116;-52
2024/03/22 01:22:01;;;;;;;15.63;5.55;;;;;;;;;;5046277;28;20068;-47
2024/03/22 01:24:27;;;;;;;14.88;5.13;;;;;;;;;;5044591;28;20595;-53
2024/03/22 01:26:53;;;;;;;15.32;6.10;;;;;;;;;;5045575;28;20420;-53
2024/03/22 01:29:19;;;;;;;10.90;5.03;;;;;;;;;;5045510;28;20036;-50
2024/03/22 01:31:45;;;;;;;11.68;5.40;;;;;;;;;;5044207;28;20056;-54
2024/03/22 01:34:10;;;;;;;15.35;5.90;;;;;;;;;;5044012;28;20041;-51
2024/03/22 01:36:36;;;;;;;10.85;5.32;;;;;;;;;;5045808;28;20055;-55
2024/03/22 01:39:02;;;;;;;15.43;6.32;;;;;;;;;;5045799;28;20029;-54
2024/03/22 01:41:27;;;;;;;12.55;5.88;;;;;;;;;;5057349;28;20024;-52
2024/03/22 01:43:53;;;;;;;15.02;5.45;;;;;;;;;;5064559;28;20527;-52
2024/03/22 01:46:19;;;;;;;15.20;6.20;;;;;;;;;;5059470;28;20069;-49
2024/03/22 01:48:45;;;;;;;14.05;5.78;;;;;;;;;;5044718;28;20103;-48
2024/03/22 01:51:11;;;;;;;15.07;5.88;;;;;;;;;;5045662;28;20082;-49
2024/03/22 01:53:37;;;;;;;11.65;5.72;;;;;;;;;;5045771;28;20060;-54
2024/03/22 01:56:03;;;;;;;18.08;6.82;;;;;;;;;;5044548;28;20033;-54
2024/03/22 01:58:28;;;;;;;13.88;4.95;;;;;;;;;;5045851;28;20025;-52
2024/03/22 02:00:54;;;;;;;10.02;5.57;;;;;;;;;;5055680;28;20545;-49
2024/03/22 02:03:20;;;;;;;16.33;5.72;;;;;;;;;;5057904;28;20048;-49
2024/03/22 02:05:45;;;;;;;13.68;5.82;;;;;;;;;;5062896;28;20039;-50
2024/03/22 02:08:11;;;;;;;15.07;6.45;;;;;;;;;;5076781;28;20032;-51
2024/03/22 02:10:37;;;;;;;15.73;6.30;;;;;;;;;;5077862;28;20051;-52
2024/03/22 02:13:03;;;;;;;12.77;5.95;;;;;;;;;;5075965;28;20032;-56
2024/03/22 02:15:29;;;;;;;12.13;5.93;;;;;;;;;;5075936;28;20588;-55
2024/03/22 02:18:15;;;;;;;15.23;5.90;;;;;;;;;;5078320;28;20036;-54
2024/03/22 02:20:40;;;;;;;14.00;5.72;;;;;;;;;;5073772;28;20086;-50
2024/03/22 02:23:09;;;;;;;11.23;5.15;;;;;;;;;;5078382;28;20529;-51
2024/03/22 02:25:37;;;;;;;15.10;6.10;;;;;;;;;;5073973;28;20040;-55
2024/03/22 02:28:03;;;;;;;14.50;5.82;;;;;;;;;;5060890;28;20096;-56
2024/03/22 02:30:29;;;;;;;9.52;5.30;;;;;;;;;;5078522;28;20086;-52
2024/03/22 02:32:54;;;;;;;10.13;5.20;;;;;;;;;;5076068;28;20028;-52
2024/03/22 02:35:20;;;;;;;13.02;5.07;;;;;;;;;;5078321;28;20044;-56
2024/03/22 02:37:46;;;;;;;17.10;6.47;;;;;;;;;;5079533;28;20408;-49
2024/03/22 02:40:12;;;;;;;17.08;5.20;;;;;;;;;;5066239;28;20033;-52
2024/03/22 02:42:38;;;;;;;9.90;5.32;;;;;;;;;;5068485;28;20540;-54
2024/03/22 02:45:03;;;;;;;10.13;5.32;;;;;;;;;;5059068;28;20094;-52
2024/03/22 02:47:29;;;;;;;13.95;5.68;;;;;;;;;;5046930;28;20064;-51
2024/03/22 02:49:55;;;;;;;10.43;5.97;;;;;;;;;;5046851;28;20076;-51
2024/03/22 02:52:21;;;;;;;9.93;4.93;;;;;;;;;;5048078;28;20504;-54
2024/03/22 02:54:46;;;;;;;10.65;4.78;;;;;;;;;;5063700;28;20128;-55
2024/03/22 02:57:12;;;;;;;11.70;5.30;;;;;;;;;;5048481;28;20064;-52
2024/03/22 02:59:38;;;;;;;15.18;6.00;;;;;;;;;;5048391;28;20040;-51
2024/03/22 03:02:04;;;;;;;11.32;5.55;;;;;;;;;;5066490;28;20033;-51
2024/03/22 03:04:29;;;;;;;12.95;5.30;;;;;;;;;;5066796;28;20398;-50
2024/03/22 03:06:55;;;;;;;11.02;4.57;;;;;;;;;;5051690;28;20132;-52
2024/03/22 03:09:21;;;;;;;11.63;5.57;;;;;;;;;;5068106;28;20392;-50
2024/03/22 03:11:47;;;;;;;12.75;5.82;;;;;;;;;;5067912;28;20086;-51
2024/03/22 03:14:13;;;;;;;10.02;5.57;;;;;;;;;;5067718;28;20067;-53
2024/03/22 03:16:38;;;;;;;14.07;5.72;;;;;;;;;;5053060;28;20044;-51
2024/03/22 03:19:04;;;;;;;12.63;4.97;;;;;;;;;;5047392;28;20424;-49
2024/03/22 03:21:29;;;;;;;12.68;5.30;;;;;;;;;;5048158;28;20047;-55
2024/03/22 03:23:55;;;;;;;13.77;5.72;;;;;;;;;;5048147;28;20029;-56
2024/03/22 03:26:21;;;;;;;11.88;5.78;;;;;;;;;;5046533;28;20064;-54
2024/03/22 03:28:46;;;;;;;13.02;5.13;;;;;;;;;;5048157;28;20094;-52
2024/03/22 03:31:12;;;;;;;13.23;5.35;;;;;;;;;;5063732;28;20528;-55
2024/03/22 03:33:38;;;;;;;13.48;5.68;;;;;;;;;;5063888;28;20420;-54
2024/03/22 03:36:04;;;;;;;11.35;5.47;;;;;;;;;;5063473;28;20051;-53
2024/03/22 03:38:29;;;;;;;12.35;5.13;;;;;;;;;;5047755;28;20593;-55
2024/03/22 03:40:55;;;;;;;12.23;5.45;;;;;;;;;;5054486;28;20139;-51
2024/03/22 03:43:21;;;;;;;11.48;5.75;;;;;;;;;;5066387;28;20032;-55
2024/03/22 03:45:46;;;;;;;13.93;6.18;;;;;;;;;;5066088;28;20041;-51
2024/03/22 03:48:15;;;;;;;11.57;4.97;;;;;;;;;;5046122;28;20029;-56
2024/03/22 03:50:41;;;;;;;17.70;6.38;;;;;;;;;;5046091;28;20083;-56
2024/03/22 03:53:06;;;;;;;11.57;5.32;;;;;;;;;;5047017;28;20170;-55
2024/03/22 03:55:33;;;;;;;14.05;6.25;;;;;;;;;;5029157;28;20733;-51
2024/03/22 03:57:59;;;;;;;11.70;5.68;;;;;;;;;;5046159;28;20067;-56
2024/03/22 04:00:25;;;;;;;12.02;5.28;;;;;;;;;;5053269;28;20119;-51
2024/03/22 04:02:50;;;;;;;13.52;5.63;;;;;;;;;;5065956;28;20036;-52
2024/03/22 04:05:16;;;;;;;15.45;6.32;;;;;;;;;;5065727;28;20044;-55
2024/03/22 04:07:42;;;;;;;14.95;5.80;;;;;;;;;;5059363;28;20052;-50
2024/03/22 04:10:08;;;;;;;10.57;5.40;;;;;;;;;;5045408;28;20123;-52
2024/03/22 04:12:34;;;;;;;11.55;5.50;;;;;;;;;;5046854;28;20411;-53
2024/03/22 04:15:00;;;;;;;10.75;5.35;;;;;;;;;;5046693;28;20087;-56
2024/03/22 04:17:25;;;;;;;12.15;5.63;;;;;;;;;;5046554;28;20036;-52
2024/03/22 04:19:52;;;;;;;14.45;5.90;;;;;;;;;;5045076;28;20831;-55
2024/03/22 04:22:18;;;;;;;13.10;5.85;;;;;;;;;;5046531;28;20033;-54
2024/03/22 04:24:43;;;;;;;11.98;5.93;;;;;;;;;;5045171;28;20684;-53
2024/03/22 04:27:09;;;;;;;14.63;6.40;;;;;;;;;;5046792;28;20068;-49
2024/03/22 04:29:35;;;;;;;13.90;6.60;;;;;;;;;;5060876;28;20042;-51
2024/03/22 04:32:01;;;;;;;21.60;5.82;;;;;;;;;;5069828;28;20037;-54
2024/03/22 04:34:26;;;;;;;14.68;6.65;;;;;;;;;;5066149;28;20033;-55
2024/03/22 04:36:52;;;;;;;14.77;6.60;;;;;;;;;;5064622;28;20037;-51
2024/03/22 04:39:22;;;;;;;16.40;6.35;;;;;;;;;;5047799;28;20052;-53
2024/03/22 04:41:47;;;;;;;;;;;;;;;;;;5061434;28;20056;-54
2024/03/22 04:44:13;;;;;;;18.08;6.85;;;;;;;;;;5063781;28;20013;-52
2024/03/22 04:46:38;;;;;;;14.52;6.97;;;;;;;;;;5065901;28;20072;-50
2024/03/22 04:49:04;;;;;;;15.75;6.28;;;;;;;;;;5084482;28;20040;-55
2024/03/22 04:51:30;;;;;;;16.23;6.45;;;;;;;;;;5086461;28;20093;-55
2024/03/22 04:53:56;;;;;;;16.38;7.13;;;;;;;;;;5084830;28;20046;-52
2024/03/22 04:56:21;;;;;;;15.73;7.22;;;;;;;;;;5086036;28;20415;-54
2024/03/22 04:58:47;;;;;;;14.15;5.80;;;;;;;;;;5068476;28;20029;-53
2024/03/22 05:01:12;;;;;;;20.63;7.93;;;;;;;;;;5035467;28;20048;-54
2024/03/22 05:03:41;;;;;;;18.65;7.28;;;;;;;;;;5046081;28;20419;-52
2024/03/22 05:06:07;;;;;;;16.67;7.18;;;;;;;;;;5058307;28;20039;-51
2024/03/22 05:08:32;;;;;;;19.52;7.13;;;;;;;;;;5061285;28;20041;-55
2024/03/22 05:10:58;;;;;;;16.48;6.60;;;;;;;;;;5086404;28;20562;-54
2024/03/22 05:13:24;;;;;;;16.15;6.93;;;;;;;;;;5085235;28;20037;-54
2024/03/22 05:15:50;;;;;;;16.85;6.85;;;;;;;;;;5084021;28;20036;-54
2024/03/22 05:18:16;;;;;;;12.45;6.00;;;;;;;;;;5076342;28;20044;-56
2024/03/22 05:20:41;;;;;;;12.98;6.47;;;;;;;;;;5062349;28;20206;-50
2024/03/22 05:23:07;;;;;;;16.52;6.80;;;;;;;;;;5070375;28;20044;-49
2024/03/22 05:25:33;;;;;;;19.42;6.75;;;;;;;;;;5074711;28;20047;-56
2024/03/22 05:27:59;;;;;;;14.25;6.15;;;;;;;;;;5084252;28;20178;-50
2024/03/22 05:30:24;;;;;;;12.82;6.40;;;;;;;;;;5051754;28;20083;-55
2024/03/22 05:32:50;;;;;;;16.23;7.53;;;;;;;;;;5045743;28;20212;-50
2024/03/22 05:35:16;;;;;;;12.18;5.82;;;;;;;;;;5044329;28;20033;-53
2024/03/22 05:37:42;;;;;;;14.93;7.78;;;;;;;;;;5027933;28;20432;-52
2024/03/22 05:40:09;;;;;;;17.65;7.50;;;;;;;;;;5047815;28;20087;-54
2024/03/22 05:42:34;;;;;;;25.20;7.47;;;;;;;;;;5082525;28;20522;-52
2024/03/22 05:45:01;;;;;;;15.57;6.78;;;;;;;;;;5068064;28;20071;-51
2024/03/22 05:47:27;;;;;;;11.65;6.22;;;;;;;;;;5069205;28;20075;-58
2024/03/22 05:49:53;;;;;;;17.42;7.05;;;;;;;;;;5050799;28;20102;-49
2024/03/22 05:52:18;;;;;;;19.33;6.93;;;;;;;;;;5069370;28;20507;-54
2024/03/22 05:54:44;;;;;;;16.65;7.10;;;;;;;;;;5069030;28;20500;-54
2024/03/22 05:57:10;;;;;;;17.65;7.68;;;;;;;;;;5070668;28;20040;-52
2024/03/22 05:59:36;;;;;;;14.55;6.90;;;;;;;;;;5067275;28;20515;-51
2024/03/22 06:02:02;;;;;;;21.05;7.32;;;;;;;;;;5062635;28;20037;-52
2024/03/22 06:04:28;;;;;;;14.30;6.63;;;;;;;;;;5064113;28;20090;-55
2024/03/22 06:06:54;;;;;;;14.45;7.38;;;;;;;;;;5064288;28;20037;-54
2024/03/22 06:09:36;;;;;;;17.13;6.97;;;;;;;;;;5049580;28;20085;-54
2024/03/22 06:12:03;;;;;;;18.30;7.97;;;;;;;;;;5049130;28;20116;-52
2024/03/22 06:14:29;;;;;;;19.50;8.30;;;;;;;;;;5049163;28;20147;-53
2024/03/22 06:16:55;;;;;;;17.10;8.32;;;;;;;;;;5077665;28;20118;-52
2024/03/22 06:19:21;;;;;;;16.85;7.97;;;;;;;;;;5078812;28;20036;-49
2024/03/22 06:21:47;;;;;;;22.75;7.93;;;;;;;;;;5074033;28;20749;-57
2024/03/22 06:24:12;;;;;;;24.73;8.30;;;;;;;;;;5034408;28;20025;-55
2024/03/22 06:26:38;;;;;;;18.92;8.32;;;;;;;;;;5073333;28;20082;-53
2024/03/22 06:29:04;;;;;;;22.40;8.75;;;;;;;;;;5060213;28;20040;-55
2024/03/22 06:31:30;;;;;;;17.92;7.97;;;;;;;;;;5062711;28;20040;-55
2024/03/22 06:34:01;;;;;;;17.95;8.73;;;;;;;;;;5076502;28;20511;-55
2024/03/22 06:36:28;;;;;;;17.88;8.57;;;;;;;;;;5075996;28;20037;-51
2024/03/22 06:38:54;;;;;;;21.63;8.95;;;;;;;;;;5060261;28;20033;-57
2024/03/22 06:41:19;;;;;;;16.70;8.55;;;;;;;;;;5075715;28;20035;-57
2024/03/22 06:43:46;;;;;;;20.55;8.60;;;;;;;;;;5048218;28;20482;-55
2024/03/22 06:46:11;;;;;;;16.33;8.73;;;;;;;;;;5046524;28;20044;-57
2024/03/22 06:48:37;;;;;;;17.15;8.27;;;;;;;;;;5046836;28;20505;-54
2024/03/22 06:51:03;;;;;;;17.63;8.70;;;;;;;;;;5047366;28;20067;-53
2024/03/22 06:53:28;;;;;;;15.48;7.82;;;;;;;;;;5048083;28;20045;-55
2024/03/22 06:55:54;;;;;;;18.90;8.60;;;;;;;;;;5046471;28;20041;-53
2024/03/22 06:58:20;;;;;;;16.63;8.05;;;;;;;;;;5055439;28;20849;-51
2024/03/22 07:00:46;;;;;;;16.30;8.02;;;;;;;;;;5093137;28;20849;-50
2024/03/22 07:03:11;;;;;;;12.68;7.95;;;;;;;;;;5076761;28;20044;-51
2024/03/22 07:05:37;;;;;;;15.23;8.20;;;;;;;;;;5041404;28;20037;-55
2024/03/22 07:08:03;;;;;;;16.75;8.48;;;;;;;;;;5072557;28;20059;-54
2024/03/22 07:10:32;;;;;;;13.48;8.18;;;;;;;;;;5075297;28;20055;-52
2024/03/22 07:12:58;;;;;;;17.40;8.35;;;;;;;;;;5080984;28;20047;-52
2024/03/22 07:15:24;;;;;;;14.25;9.45;;;;;;;;;;5069871;28;20083;-56
2024/03/22 07:17:50;;;;;;;16.30;9.15;;;;;;;;;;5079031;28;20036;-54
2024/03/22 07:20:16;;;;;;;21.60;9.48;;;;;;;;;;5056877;28;20037;-53
2024/03/22 07:22:41;;;;;;;13.20;7.60;;;;;;;;;;5045928;28;20029;-55
2024/03/22 07:25:09;;;;;;;14.60;8.00;;;;;;;;;;5047924;28;20036;-55
2024/03/22 07:27:37;;;;;;;15.32;8.82;;;;;;;;;;5047326;28;20033;-53
2024/03/22 07:30:03;;;;;;;14.70;7.63;;;;;;;;;;5045922;28;20473;-50
2024/03/22 07:32:30;;;;;;;14.63;8.57;;;;;;;;;;5063896;28;20043;-51
2024/03/22 07:34:55;;;;;;;23.08;8.95;;;;;;;;;;5047508;28;20045;-52
2024/03/22 07:37:21;;;;;;;12.30;8.35;;;;;;;;;;5066936;28;20082;-54
2024/03/22 07:39:47;;;;;;;16.30;8.88;;;;;;;;;;5066894;28;20036;-54
2024/03/22 07:42:15;;;;;;;16.10;8.80;;;;;;;;;;5051848;28;20387;-53
2024/03/22 07:44:41;;;;;;;16.58;7.70;;;;;;;;;;5055692;28;20041;-52
2024/03/22 07:47:06;;;;;;;10.40;7.00;;;;;;;;;;5045315;28;20412;-53
2024/03/22 07:49:33;;;;;;;13.82;7.57;;;;;;;;;;5036571;28;20047;-53
2024/03/22 07:52:00;;;;;;;17.63;8.40;;;;;;;;;;5045456;28;20505;-59
2024/03/22 07:54:25;;;;;;;14.63;8.90;;;;;;;;;;5045910;28;20122;-53
2024/03/22 07:56:51;;;;;;;12.48;7.97;;;;;;;;;;5045406;28;20583;-54
2024/03/22 07:59:17;;;;;;;13.35;7.80;;;;;;;;;;5053637;28;20504;-51
2024/03/22 08:01:42;;;;;;;14.48;8.13;;;;;;;;;;5063581;28;20562;-52
2024/03/22 08:04:08;;;;;;;14.98;8.40;;;;;;;;;;5053709;28;20053;-51
2024/03/22 08:06:34;;;;;;;18.55;8.38;;;;;;;;;;5045541;28;20036;-53
2024/03/22 08:09:00;;;;;;;18.65;8.57;;;;;;;;;;5046406;28;20071;-53
2024/03/22 08:11:26;;;;;;;15.25;8.85;;;;;;;;;;5061995;28;20115;-54
2024/03/22 08:13:52;;;;;;;17.35;8.07;;;;;;;;;;5046013;28;20044;-49
2024/03/22 08:16:19;;;;;;;14.40;7.93;;;;;;;;;;5047089;28;20037;-51
2024/03/22 08:18:45;;;;;;;10.93;6.43;;;;;;;;;;5061872;28;20033;-52
2024/03/22 08:21:11;;;;;;;12.15;7.95;;;;;;;;;;5028369;28;20838;-57
2024/03/22 08:23:36;;;;;;;18.00;7.25;;;;;;;;;;5051109;28;20522;-54
2024/03/22 08:26:02;;;;;;;15.13;7.70;;;;;;;;;;5044595;28;20033;-51
2024/03/22 08:28:28;;;;;;;17.17;8.32;;;;;;;;;;5044734;28;20051;-55
2024/03/22 08:30:54;;;;;;;13.13;8.10;;;;;;;;;;5045014;28;20120;-50
2024/03/22 08:33:19;;;;;;;14.70;8.45;;;;;;;;;;5045023;28;20463;-51
2024/03/22 08:35:45;;;;;;;16.08;8.27;;;;;;;;;;5046152;28;20079;-52
2024/03/22 08:38:11;;;;;;;19.45;9.00;;;;;;;;;;5044593;28;20044;-48
2024/03/22 08:40:37;;;;;;;20.48;8.43;;;;;;;;;;5029716;28;20579;-54
2024/03/22 08:43:03;;;;;;;20.40;9.18;;;;;;;;;;5060699;28;20056;-57
2024/03/22 08:45:29;;;;;;;14.93;8.60;;;;;;;;;;5062904;28;20127;-51
2024/03/22 08:47:55;;;;;;;12.95;7.82;;;;;;;;;;5045825;28;20033;-49
2024/03/22 08:50:21;;;;;;;21.98;9.25;;;;;;;;;;5052683;28;20040;-50
2024/03/22 08:52:46;;;;;;;12.23;8.10;;;;;;;;;;5077492;28;20587;-56
2024/03/22 08:55:13;;;;;;;14.75;7.63;;;;;;;;;;5065609;28;20586;-54
2024/03/22 08:57:38;;;;;;;18.42;8.32;;;;;;;;;;5059973;28;20037;-54
2024/03/22 09:00:04;;;;;;;19.25;8.13;;;;;;;;;;5045193;28;20041;-58
2024/03/22 09:02:30;;;;;;;13.65;8.48;;;;;;;;;;5060934;28;20036;-54
2024/03/22 09:04:56;;;;;;;18.70;7.53;;;;;;;;;;5064067;28;20058;-52
2024/03/22 09:07:23;;;;;;;16.17;7.93;;;;;;;;;;5064058;28;20869;-53
2024/03/22 09:09:49;;;;;;;11.98;7.05;;;;;;;;;;5063430;28;20090;-54
2024/03/22 09:12:14;;;;;;;11.18;6.30;;;;;;;;;;5065312;28;20040;-50
2024/03/22 09:14:40;;;;;;;13.25;7.32;;;;;;;;;;5069108;28;20040;-50
2024/03/22 09:17:06;;;;;;;15.88;7.60;;;;;;;;;;5044977;28;20037;-51
2024/03/22 09:19:32;;;;;;;16.27;7.50;;;;;;;;;;5045278;28;20040;-49
2024/03/22 09:21:57;;;;;;;16.08;7.10;;;;;;;;;;5044050;28;20040;-54
2024/03/22 09:24:23;;;;;;;21.55;8.13;;;;;;;;;;5045541;28;20037;-47
2024/03/22 09:26:49;;;;;;;14.45;7.57;;;;;;;;;;5045357;28;20039;-50
2024/03/22 09:29:14;;;;;;;13.32;7.43;;;;;;;;;;5060733;28;20040;-52
2024/03/22 09:31:40;;;;;;;14.95;7.45;;;;;;;;;;5046109;28;20587;-53
2024/03/22 09:34:06;;;;;;;15.02;6.80;;;;;;;;;;5044079;28;20040;-50
2024/03/22 09:36:35;;;;;;;18.73;6.47;;;;;;;;;;5045769;28;20029;-52
2024/03/22 09:39:01;;;;;;;12.77;7.15;;;;;;;;;;5044007;28;20862;-49
2024/03/22 09:41:27;;;;;;;11.63;6.72;;;;;;;;;;5058099;28;20052;-47
2024/03/22 09:43:54;;;;;;;11.05;7.65;;;;;;;;;;5065245;28;20397;-51
2024/03/22 09:46:22;;;;;;;16.20;8.18;;;;;;;;;;5068590;28;20039;-51
2024/03/22 09:48:48;;;;;;;13.95;8.05;;;;;;;;;;5056091;28;20033;-54
2024/03/22 09:51:16;;;;;;;13.23;7.40;;;;;;;;;;5043384;28;20051;-54
2024/03/22 09:53:45;;;;;;;15.50;7.60;;;;;;;;;;5044204;28;20037;-52
2024/03/22 09:56:14;;;;;;;12.73;6.82;;;;;;;;;;5032352;28;20036;-53
2024/03/22 09:58:40;;;;;;;13.95;7.30;;;;;;;;;;5076366;28;20040;-53
2024/03/22 10:01:06;;;;;;;17.17;8.38;;;;;;;;;;5075244;28;20116;-54
2024/03/22 10:03:32;;;;;;;11.63;6.95;;;;;;;;;;5085238;28;20032;-54
2024/03/22 10:05:58;;;;;;;16.27;7.55;;;;;;;;;;5071524;28;20494;-50
2024/03/22 10:08:23;;;;;;;9.93;5.60;;;;;;;;;;5045393;28;20056;-53
2024/03/22 10:10:49;;;;;;;9.40;6.57;;;;;;;;;;5044023;28;20108;-52
2024/03/22 10:13:14;;;;;;;16.80;7.60;;;;;;;;;;5060162;28;20033;-55
2024/03/22 10:15:40;;;;;;;13.38;7.38;;;;;;;;;;5044789;28;20037;-48
2024/03/22 10:18:06;;;;;;;15.20;6.40;;;;;;;;;;5060291;28;20080;-48
2024/03/22 10:20:33;;;;;;;10.82;6.18;;;;;;;;;;5044969;28;20029;-57
2024/03/22 10:22:59;;;;;;;16.02;7.15;;;;;;;;;;5063511;28;20550;-57
2024/03/22 10:25:28;;;;;;;16.48;6.95;;;;;;;;;;5044744;28;20033;-50
2024/03/22 10:27:54;;;;;;;13.02;6.70;;;;;;;;;;5077090;28;20033;-51
2024/03/22 10:30:21;;;;;;;14.07;6.75;;;;;;;;;;5045890;28;20037;-48
2024/03/22 10:32:51;;;;;;;14.63;7.10;;;;;;;;;;5094342;28;20056;-54
2024/03/22 10:35:17;;;;;;;12.77;7.32;;;;;;;;;;5086756;28;20039;-49
2024/03/22 10:37:43;;;;;;;9.05;5.28;;;;;;;;;;5079714;28;20040;-52
2024/03/22 10:40:09;;;;;;;11.90;5.63;;;;;;;;;;5051621;28;20109;-50
2024/03/22 10:42:36;;;;;;;10.75;5.95;;;;;;;;;;5060604;28;20033;-54
2024/03/22 10:45:02;;;;;;;12.15;5.97;;;;;;;;;;5048075;28;20116;-54
2024/03/22 10:47:29;;;;;;;10.10;5.88;;;;;;;;;;5046561;28;20048;-50
2024/03/22 10:50:02;;;;;;;13.38;5.78;;;;;;;;;;5029667;28;20037;-49
2024/03/22 10:52:30;;;;;;;11.23;5.65;;;;;;;;;;5046643;28;20179;-50
2024/03/22 10:54:56;;;;;;;12.20;5.68;;;;;;;;;;5047886;28;20037;-53
2024/03/22 10:57:22;;;;;;;10.50;5.30;;;;;;;;;;5062931;28;20411;-50
2024/03/22 10:59:48;;;;;;;11.52;5.40;;;;;;;;;;5047306;28;20037;-49
2024/03/22 11:02:17;;;;;;;11.55;5.22;;;;;;;;;;5066392;28;20028;-53
2024/03/22 11:04:53;;;;;;;7.83;5.83;;;;;;;;;;5052192;28;20039;-52
2024/03/22 11:07:21;;;;;;;8.10;5.95;;;;;;;;;;5046415;28;20033;-54
2024/03/22 11:09:51;;;;;;;10.50;5.72;;;;;;;;;;5046415;28;20063;-49
2024/03/22 11:12:19;;;;;;;13.30;5.82;;;;;;;;;;5048064;28;20512;-52
2024/03/22 11:14:46;;;;;;;7.72;5.30;;;;;;;;;;5041943;28;20196;-51
2024/03/22 11:17:12;;;;;;;10.75;4.90;;;;;;;;;;5066512;28;20518;-47
2024/03/22 11:19:38;;;;;;;7.47;4.60;;;;;;;;;;5067522;28;20062;-57
2024/03/22 11:22:07;;;;;;;7.82;4.65;;;;;;;;;;5054869;28;20517;-50
2024/03/22 11:24:33;;;;;;;8.93;4.70;;;;;;;;;;5070969;28;20036;-51
2024/03/22 11:26:59;;;;;;;8.38;4.70;;;;;;;;;;5076468;28;20032;-52
2024/03/22 11:29:25;;;;;;;9.90;4.47;;;;;;;;;;5076588;28;20031;-48
2024/03/22 11:31:50;;;;;;;10.23;4.85;;;;;;;;;;5075384;28;20036;-53
2024/03/22 11:34:16;;;;;;;12.13;5.30;;;;;;;;;;5073477;28;20039;-50
2024/03/22 11:36:42;;;;;;;8.88;4.50;;;;;;;;;;5078588;28;20513;-50
2024/03/22 11:39:08;;;;;;;9.52;4.68;;;;;;;;;;5074430;28;20071;-55
2024/03/22 11:41:35;;;;;;;8.23;4.43;;;;;;;;;;5077088;28;20033;-47
2024/03/22 11:44:01;;;;;;;11.25;4.88;;;;;;;;;;5074739;28;20051;-57
2024/03/22 11:46:27;;;;;;;7.80;4.72;;;;;;;;;;5075813;28;20031;-50
2024/03/22 11:48:53;;;;;;;12.15;4.38;;;;;;;;;;5075262;28;20040;-54
2024/03/22 11:51:19;;;;;;;10.48;5.05;;;;;;;;;;5075606;28;20415;-51
2024/03/22 11:53:48;;;;;;;9.07;4.95;;;;;;;;;;5066067;28;20040;-52
2024/03/22 11:56:17;;;;;;;8.85;4.45;;;;;;;;;;5075204;28;20028;-53
2024/03/22 11:58:42;;;;;;;7.45;4.53;;;;;;;;;;5074571;28;20460;-50
2024/03/22 12:01:08;;;;;;;10.30;4.55;;;;;;;;;;5075655;28;20040;-53
2024/03/22 12:03:35;;;;;;;11.07;4.45;;;;;;;;;;5075376;28;20021;-49
2024/03/22 12:06:01;;;;;;;10.55;5.10;;;;;;;;;;5059573;28;20071;-51
2024/03/22 12:08:26;;;;;;;9.77;5.47;;;;;;;;;;5045492;28;20124;-50
2024/03/22 12:10:52;;;;;;;9.88;4.70;;;;;;;;;;5046682;28;20120;-53
2024/03/22 12:13:18;;;;;;;11.68;5.13;;;;;;;;;;5045166;28;20052;-48
2024/03/22 12:15:44;;;;;;;10.45;4.68;;;;;;;;;;5046260;28;20064;-49
2024/03/22 12:18:12;;;;;;;8.95;4.65;;;;;;;;;;5065616;28;20484;-51
2024/03/22 12:20:38;;;;;;;7.90;4.97;;;;;;;;;;5072170;28;20062;-53
2024/03/22 12:23:04;;;;;;;6.38;4.50;;;;;;;;;;5073833;28;20044;-51
2024/03/22 12:25:30;;;;;;;11.35;5.07;;;;;;;;;;5070158;28;20059;-52
2024/03/22 12:27:55;;;;;;;11.25;4.78;;;;;;;;;;5053205;28;20080;-49
2024/03/22 12:30:21;;;;;;;10.10;4.88;;;;;;;;;;5077148;28;20050;-53
2024/03/22 12:32:47;;;;;;;7.65;4.60;;;;;;;;;;5079156;28;20048;-47
2024/03/22 12:35:13;;;;;;;11.15;4.13;;;;;;;;;;5072019;28;20385;-51
2024/03/22 12:37:39;;;;;;;15.60;4.85;;;;;;;;;;5066730;28;20518;-50
2024/03/22 12:40:08;;;;;;;8.15;3.95;;;;;;;;;;5063951;28;20068;-53
2024/03/22 12:42:34;;;;;;;9.48;4.30;;;;;;;;;;5064443;28;20024;-54
2024/03/22 12:44:59;;;;;;;9.60;5.05;;;;;;;;;;5064244;28;20043;-49
2024/03/22 12:47:25;;;;;;;9.95;4.70;;;;;;;;;;5067740;28;20032;-53
2024/03/22 12:49:51;;;;;;;9.05;4.10;;;;;;;;;;5045701;28;20463;-49
2024/03/22 12:52:17;;;;;;;6.28;4.68;;;;;;;;;;5042885;28;20194;-53
2024/03/22 12:54:42;;;;;;;9.98;4.80;;;;;;;;;;5045675;28;20036;-49
2024/03/22 12:57:09;;;;;;;10.20;4.00;;;;;;;;;;5061236;28;20421;-51
2024/03/22 12:59:35;;;;;;;9.18;4.47;;;;;;;;;;5044488;28;20413;-49
2024/03/22 13:02:01;;;;;;;7.82;3.70;;;;;;;;;;5080687;28;20411;-50
2024/03/22 13:04:28;;;;;;;6.28;4.20;;;;;;;;;;5047697;28;20032;-52
2024/03/22 13:06:54;;;;;;;11.05;4.00;;;;;;;;;;5047562;28;20089;-52
2024/03/22 13:09:21;;;;;;;12.18;3.38;;;;;;;;;;5050614;28;20040;-50
2024/03/22 13:11:47;;;;;;;12.13;3.65;;;;;;;;;;5043626;28;20136;-50
2024/03/22 13:14:14;;;;;;;7.20;3.40;;;;;;;;;;5045410;28;20049;-47
2024/03/22 13:16:40;;;;;;;7.78;3.75;;;;;;;;;;5045473;28;20025;-51
2024/03/22 13:19:08;;;;;;;5.45;3.13;;;;;;;;;;5045846;28;20779;-50
2024/03/22 13:21:34;;;;;;;8.47;3.47;;;;;;;;;;5045192;28;20037;-49
2024/03/22 13:24:00;;;;;;;7.32;3.30;;;;;;;;;;5043889;28;20073;-50
2024/03/22 13:26:25;;;;;;;5.82;3.53;;;;;;;;;;5052552;28;20539;-45
2024/03/22 13:28:51;;;;;;;6.78;3.42;;;;;;;;;;5061731;28;20087;-49
2024/03/22 13:31:17;;;;;;;6.63;3.50;;;;;;;;;;5043262;28;20048;-49
2024/03/22 13:33:43;;;;;;;8.45;3.80;;;;;;;;;;5043928;28;20040;-49
2024/03/22 13:36:09;;;;;;;9.13;2.85;;;;;;;;;;5045711;28;20069;-49
2024/03/22 13:38:34;;;;;;;8.45;3.65;;;;;;;;;;5051201;28;20089;-49
2024/03/22 13:41:00;;;;;;;7.80;3.08;;;;;;;;;;5045067;28;20103;-51
2024/03/22 13:43:27;;;;;;;5.38;3.05;;;;;;;;;;5045508;28;20485;-51
2024/03/22 13:45:54;;;;;;;5.65;2.60;;;;;;;;;;5043664;28;20065;-50
2024/03/22 13:48:23;;;;;;;7.65;2.92;;;;;;;;;;5044085;28;20040;-48
2024/03/22 13:50:53;;;;;;;5.75;2.80;;;;;;;;;;5045428;28;20498;-47
2024/03/22 13:53:21;;;;;;;4.20;2.22;;;;;;;;;;5043814;28;20048;-48
2024/03/22 13:55:52;;;;;;;5.03;2.33;;;;;;;;;;5043756;28;20128;-51
2024/03/22 13:58:18;;;;;;;6.05;2.25;;;;;;;;;;5043396;28;20029;-54
2024/03/22 14:00:44;;;;;;;4.90;2.50;;;;;;;;;;5053269;28;20043;-51
2024/03/22 14:03:10;;;;;;;5.70;2.78;;;;;;;;;;5065907;28;20442;-50
2024/03/22 14:05:36;;;;;;;9.45;3.55;;;;;;;;;;5068557;28;20037;-50
2024/03/22 14:08:03;;;;;;;7.38;2.90;;;;;;;;;;5067093;28;20064;-49
2024/03/22 14:10:31;;;;;;;5.95;3.03;;;;;;;;;;5062309;28;20037;-52
2024/03/22 14:12:58;;;;;;;8.95;3.15;;;;;;;;;;5067155;28;20139;-48
2024/03/22 14:15:26;;;;;;;5.13;2.70;;;;;;;;;;5068638;28;20033;-51
2024/03/22 14:17:52;;;;;;;10.40;3.47;;;;;;;;;;5067485;28;20032;-52
2024/03/22 14:20:18;;;;;;;10.75;3.38;;;;;;;;;;5068624;28;20508;-51
2024/03/22 14:22:44;;;;;;;5.05;1.98;;;;;;;;;;5048756;28;20047;-51
2024/03/22 14:25:10;;;;;;;6.57;2.63;;;;;;;;;;5047602;28;20068;-49
2024/03/22 14:27:36;;;;;;;5.38;2.70;;;;;;;;;;5048620;28;20128;-51